Archbold, OH

11:34 AM EDT on March 31, 2015 (GMT -0400)
Defiance Memorial | | Change Station
CLOSE
Current Station
Airport
Location: Defiance,
Elevation: 705 ft
Nearby Weather Stations

Elev 705 ft 41.34 °N, 84.43 °W | Updated 23 minutes ago

Mostly Cloudy
Mostly Cloudy
48 °F
Feels Like 48 °F
N
17
Wind Variable Wind from North
Gusts 29 mph

Today
High -- | Low -- °F
--% Chance of Precip.
Yesterday
High -- | Low -- °F
Precip. -- in
7:22 AM 8:01 PM
Waxing Gibbous, 87% visible
Pressure 29.76 in
Visibility 8.0 miles
Clouds Mostly Cloudy 1400 ft
Mostly Cloudy 2000 ft
Dew Point 40 °F
Humidity 74%
Rainfall 0.00 in
Snow Depth Not available.
UV 3 out of 12
Pollen 3.50 out of 12
Air Quality Not available.
Flu Activity Not available.
SPECI KDFI 311511Z AUTO 36015G25KT 8SM BKN014 BKN020 09/04 A2976 RMK AO2 PK WND 35027/1455 T00890044

More Conditions Fewer Conditions

Pressure 29.76 in
Visibility 8.0 miles
Clouds Mostly Cloudy 1400 ft
Mostly Cloudy 2000 ft
Dew Point 40 °F
Humidity 74%
Rainfall 0.00 in
Snow Depth Not available.
UV 3 out of 12
Pollen 3.50 out of 12
Air Quality Not available.
Flu Activity Not available.
SPECI KDFI 311511Z AUTO 36015G25KT 8SM BKN014 BKN020 09/04 A2976 RMK AO2 PK WND 35027/1455 T00890044

More Conditions Fewer Conditions

10-Day Weather Forecast

Almanac

Astronomy

Mar. 31, 2015 Rise Set
Actual Time
Civil Twilight
Nautical Twilight
Astronomical Twilight
Moon
Length of Visible Light
Length of Day
Tomorrow will be .
, % of the Moon is Illuminated

Today's Extremes

State Highs State Lows

Community

WunderPhotos

Upload Photos

1,809,781 photos uploaded!

WunderBlogs® & News

Nearby

Air Quality

  Air Quality AQ Index Pollutant
Not available.

Snow Depth

Station Depth Elevation

Earthquake Activity

City Distance Mag. Time & Date
Minimum magnitude displayed is 2.5.

Coastal Water Temperatures

Place Temperature

Stations

Nearby Weather Stations

Station Location Temp. Windchill Dew Point Humidity Wind Precip. Elev Updated Type